createdAt,value
2019-05-21T00:01:06.511Z,12.60
2019-05-21T00:03:33.174Z,12.60
2019-05-21T00:05:59.741Z,12.80
2019-05-21T00:08:26.261Z,12.80
2019-05-21T00:10:52.902Z,12.70
2019-05-21T00:13:19.591Z,12.70
2019-05-21T00:15:46.108Z,12.70
2019-05-21T00:18:12.665Z,12.80
2019-05-21T00:20:39.209Z,12.70
2019-05-21T00:23:05.724Z,12.50
2019-05-21T00:25:33.263Z,12.70
2019-05-21T00:28:32.725Z,12.60
2019-05-21T00:31:36.722Z,12.70
2019-05-21T00:34:44.020Z,12.80
2019-05-21T00:37:46.411Z,12.80
2019-05-21T00:40:50.366Z,12.80
2019-05-21T00:43:25.809Z,12.80
2019-05-21T00:45:52.493Z,12.90
2019-05-21T00:48:19.034Z,12.80
2019-05-21T00:50:45.989Z,12.70
2019-05-21T00:53:12.533Z,12.70
2019-05-21T00:55:39.193Z,12.70
2019-05-21T00:58:05.743Z,12.70
2019-05-21T01:00:32.292Z,12.80
2019-05-21T01:02:58.812Z,12.70
2019-05-21T01:05:25.364Z,12.60
2019-05-21T01:07:51.930Z,12.60
2019-05-21T01:10:18.597Z,12.70
2019-05-21T01:12:46.253Z,12.70
2019-05-21T01:15:12.871Z,12.70
2019-05-21T01:17:39.433Z,12.70
2019-05-21T01:20:06.398Z,12.50
2019-05-21T01:22:32.965Z,12.60
2019-05-21T01:24:59.595Z,12.60
2019-05-21T01:27:26.132Z,12.70
2019-05-21T01:29:52.672Z,12.60
2019-05-21T01:32:19.259Z,12.60
2019-05-21T01:34:45.824Z,12.60
2019-05-21T01:37:12.391Z,12.40
2019-05-21T01:39:38.925Z,12.50
2019-05-21T01:42:05.470Z,12.50
2019-05-21T01:44:32.020Z,12.60
2019-05-21T01:46:58.566Z,12.60
2019-05-21T01:49:25.162Z,12.50
2019-05-21T01:51:51.711Z,12.60
2019-05-21T01:54:18.262Z,12.60
2019-05-21T01:56:44.811Z,12.60
2019-05-21T01:59:11.457Z,12.50
2019-05-21T02:01:37.980Z,12.60
2019-05-21T02:04:04.649Z,12.60
2019-05-21T02:06:31.236Z,12.70
2019-05-21T02:08:57.772Z,12.70
2019-05-21T02:11:24.413Z,12.50
2019-05-21T02:13:50.962Z,12.50
2019-05-21T02:16:17.498Z,12.50
2019-05-21T02:18:44.028Z,12.60
2019-05-21T02:21:10.611Z,12.60
2019-05-21T02:23:37.142Z,12.60
2019-05-21T02:26:03.886Z,12.70
2019-05-21T02:28:30.460Z,12.60
2019-05-21T02:30:57.144Z,12.60
2019-05-21T02:33:23.683Z,12.70
2019-05-21T02:35:54.297Z,12.70
2019-05-21T02:38:18.550Z,12.60
2019-05-21T02:40:45.083Z,12.70
2019-05-21T02:43:11.620Z,12.70
2019-05-21T02:45:38.161Z,12.60
2019-05-21T02:48:04.720Z,12.60
2019-05-21T02:50:31.395Z,12.70
2019-05-21T02:52:57.963Z,12.70
2019-05-21T02:55:24.502Z,12.70
2019-05-21T02:57:51.053Z,12.70
2019-05-21T03:00:24.242Z,12.50
2019-05-21T03:02:50.773Z,12.70
2019-05-21T03:05:17.312Z,12.60
2019-05-21T03:07:43.870Z,12.50
2019-05-21T03:10:10.585Z,12.60
2019-05-21T03:12:37.140Z,12.60
2019-05-21T03:15:05.974Z,12.70
2019-05-21T03:17:32.635Z,12.70
2019-05-21T03:19:59.182Z,12.80
2019-05-21T03:22:27.670Z,12.80
2019-05-21T03:24:54.339Z,12.70
2019-05-21T03:27:20.883Z,12.60
2019-05-21T03:29:47.403Z,12.40
2019-05-21T03:32:13.977Z,12.50
2019-05-21T03:34:40.561Z,12.60
2019-05-21T03:37:07.179Z,12.60
2019-05-21T03:39:33.713Z,12.50
2019-05-21T03:42:00.462Z,12.50
2019-05-21T03:44:27.017Z,12.50
2019-05-21T03:46:54.275Z,12.50
2019-05-21T03:49:20.951Z,12.50
2019-05-21T03:51:47.566Z,12.40
2019-05-21T03:54:14.115Z,12.40
2019-05-21T03:56:40.672Z,12.30
2019-05-21T03:59:07.195Z,12.50
2019-05-21T04:01:33.739Z,12.40
2019-05-21T04:04:00.286Z,12.40
2019-05-21T04:06:28.933Z,12.40
2019-05-21T04:08:55.150Z,12.40
2019-05-21T04:11:21.717Z,12.40
2019-05-21T04:13:48.241Z,12.50
2019-05-21T04:16:28.712Z,12.50
2019-05-21T04:19:06.178Z,12.50
2019-05-21T04:21:32.817Z,12.50
2019-05-21T04:23:59.498Z,12.60
2019-05-21T04:26:26.038Z,12.50
2019-05-21T04:28:52.623Z,12.70
2019-05-21T04:31:19.246Z,12.70
2019-05-21T04:33:46.910Z,12.70
2019-05-21T04:36:13.484Z,12.70
2019-05-21T04:38:40.018Z,12.60
2019-05-21T04:41:06.554Z,12.60
2019-05-21T04:43:33.141Z,12.70
2019-05-21T04:45:59.680Z,12.80
2019-05-21T04:48:26.242Z,12.70
2019-05-21T04:50:52.805Z,12.90
2019-05-21T04:53:19.341Z,12.80
2019-05-21T04:55:45.888Z,12.90
2019-05-21T04:58:56.307Z,12.70
2019-05-21T05:01:22.895Z,12.90
2019-05-21T05:03:49.429Z,12.90
2019-05-21T05:06:15.990Z,13.00
2019-05-21T05:08:43.720Z,13.00
2019-05-21T05:11:10.277Z,13.00
2019-05-21T05:13:36.833Z,13.00
2019-05-21T05:16:04.235Z,12.80
2019-05-21T05:18:31.125Z,12.90
2019-05-21T05:20:57.687Z,12.90
2019-05-21T05:23:24.212Z,12.80
2019-05-21T05:25:50.795Z,12.80
2019-05-21T05:28:18.453Z,13.00
2019-05-21T05:30:44.977Z,13.10
2019-05-21T05:33:12.755Z,13.10
2019-05-21T05:35:39.296Z,13.00
2019-05-21T05:38:05.859Z,13.10
2019-05-21T05:40:32.522Z,13.10
2019-05-21T05:42:59.114Z,13.30
2019-05-21T05:45:25.764Z,13.30
2019-05-21T05:47:52.514Z,13.30
2019-05-21T05:50:32.764Z,13.30
2019-05-21T05:52:59.343Z,13.30
2019-05-21T05:55:25.889Z,13.40
2019-05-21T05:57:53.175Z,13.30
2019-05-21T06:00:20.797Z,13.30
2019-05-21T06:02:47.336Z,13.40
2019-05-21T06:05:15.115Z,13.40
2019-05-21T06:07:41.761Z,13.40
2019-05-21T06:10:09.290Z,13.50
2019-05-21T06:12:35.949Z,13.60
2019-05-21T06:15:05.649Z,13.60
2019-05-21T06:17:32.328Z,13.60
2019-05-21T06:19:59.074Z,13.70
2019-05-21T06:22:25.648Z,13.50
2019-05-21T06:24:52.131Z,13.50
2019-05-21T06:27:18.807Z,13.50
2019-05-21T06:29:45.331Z,13.60
2019-05-21T06:32:11.899Z,13.90
2019-05-21T06:34:38.448Z,14.10
2019-05-21T06:37:05.067Z,14.30
2019-05-21T06:39:31.629Z,14.30
2019-05-21T06:41:58.205Z,14.50
2019-05-21T06:44:24.833Z,14.40
2019-05-21T06:46:59.789Z,14.50
2019-05-21T06:49:28.351Z,14.40
2019-05-21T06:52:00.164Z,14.60
2019-05-21T06:57:47.463Z,14.50
2019-05-21T07:00:22.890Z,14.60
2019-05-21T07:05:58.741Z,14.30
2019-05-21T07:08:34.737Z,14.00
2019-05-21T07:16:53.843Z,14.30
2019-05-21T07:19:27.279Z,14.50
2019-05-21T07:21:54.354Z,14.50
2019-05-21T07:24:20.912Z,14.40
2019-05-21T07:26:47.604Z,14.50
2019-05-21T07:29:14.463Z,14.60
2019-05-21T07:31:41.442Z,14.70
2019-05-21T07:34:08.069Z,14.40
2019-05-21T07:36:34.629Z,14.10
2019-05-21T07:39:01.227Z,14.20
2019-05-21T07:41:28.891Z,14.10
2019-05-21T07:43:55.458Z,14.40
2019-05-21T07:46:21.980Z,14.40
2019-05-21T07:48:48.645Z,14.30
2019-05-21T07:51:15.323Z,14.40
2019-05-21T07:53:41.905Z,14.60
2019-05-21T07:56:08.475Z,14.70
2019-05-21T07:58:35.048Z,14.50
2019-05-21T08:01:01.895Z,14.70
2019-05-21T08:03:28.552Z,14.60
2019-05-21T08:05:55.098Z,14.80
2019-05-21T08:08:21.636Z,14.80
2019-05-21T08:10:48.222Z,14.80
2019-05-21T08:13:14.945Z,14.80
2019-05-21T08:15:41.476Z,14.70
2019-05-21T08:18:08.035Z,14.80
2019-05-21T08:20:34.693Z,15.00
2019-05-21T08:23:01.228Z,14.90
2019-05-21T08:25:27.804Z,14.70
2019-05-21T08:27:54.376Z,14.80
2019-05-21T08:30:21.147Z,14.70
2019-05-21T08:32:48.768Z,14.70
2019-05-21T08:35:15.483Z,14.70
2019-05-21T08:37:41.950Z,14.70
2019-05-21T08:40:10.412Z,14.60
2019-05-21T08:42:37.035Z,14.70
2019-05-21T08:45:09.018Z,14.60
2019-05-21T08:47:35.861Z,14.60
2019-05-21T08:50:05.135Z,14.60
2019-05-21T08:52:31.691Z,14.60
2019-05-21T08:54:58.243Z,14.60
2019-05-21T08:57:24.819Z,14.70
2019-05-21T08:59:51.471Z,14.60
2019-05-21T09:02:18.047Z,14.80
2019-05-21T09:04:46.776Z,14.80
2019-05-21T09:07:13.974Z,14.70
2019-05-21T09:09:50.087Z,14.80
2019-05-21T09:12:08.930Z,15.00
2019-05-21T09:14:35.558Z,15.00
2019-05-21T09:17:02.264Z,15.20
2019-05-21T09:19:30.066Z,15.30
2019-05-21T09:21:56.698Z,15.30
2019-05-21T09:24:23.266Z,15.30
2019-05-21T09:26:50.038Z,15.00
2019-05-21T09:29:16.604Z,14.80
2019-05-21T09:31:43.261Z,14.90
2019-05-21T09:34:09.944Z,14.70
2019-05-21T09:36:36.489Z,14.70
2019-05-21T09:39:06.060Z,14.90
2019-05-21T09:41:34.676Z,14.90
2019-05-21T09:44:02.173Z,15.00
2019-05-21T09:46:28.859Z,15.00
2019-05-21T09:48:56.181Z,15.00
2019-05-21T09:51:22.984Z,14.90
2019-05-21T09:53:49.549Z,14.80
2019-05-21T09:56:31.948Z,14.80
2019-05-21T09:59:02.788Z,14.90
2019-05-21T10:01:31.247Z,15.10
2019-05-21T10:03:59.629Z,15.10
2019-05-21T10:06:26.515Z,15.10
2019-05-21T10:08:53.185Z,15.00
2019-05-21T10:11:19.755Z,14.90
2019-05-21T10:13:46.306Z,14.90
2019-05-21T10:16:12.838Z,15.00
2019-05-21T10:18:39.412Z,15.00
2019-05-21T10:21:06.038Z,14.90
2019-05-21T10:23:32.660Z,15.00
2019-05-21T10:25:59.208Z,14.80
2019-05-21T10:28:25.733Z,14.70
2019-05-21T10:30:52.389Z,14.80
2019-05-21T10:33:18.942Z,14.90
2019-05-21T10:35:45.516Z,15.20
2019-05-21T10:38:12.199Z,15.30
2019-05-21T10:40:49.263Z,15.40
2019-05-21T10:43:20.128Z,15.20
2019-05-21T10:45:50.068Z,15.20
2019-05-21T10:48:21.486Z,15.50
2019-05-21T10:50:58.537Z,15.50
2019-05-21T10:53:21.589Z,15.60
2019-05-21T10:55:51.445Z,15.70
2019-05-21T10:58:18.030Z,15.70
2019-05-21T11:00:46.670Z,15.70
2019-05-21T11:03:16.729Z,15.70
2019-05-21T11:05:45.590Z,15.70
2019-05-21T11:08:24.029Z,15.60
2019-05-21T11:10:43.446Z,15.70
2019-05-21T11:13:12.569Z,15.80
2019-05-21T11:15:41.179Z,15.80
2019-05-21T11:18:10.974Z,15.80
2019-05-21T11:20:39.398Z,15.90
2019-05-21T11:23:09.025Z,16.00
2019-05-21T11:25:36.150Z,16.00
2019-05-21T11:28:06.020Z,15.80
2019-05-21T11:30:33.556Z,15.70
2019-05-21T11:33:00.370Z,15.70
2019-05-21T11:35:28.242Z,15.70
2019-05-21T11:37:55.004Z,15.70
2019-05-21T11:40:24.899Z,15.70
2019-05-21T11:42:53.201Z,15.80
2019-05-21T11:45:31.817Z,15.80
2019-05-21T11:47:48.808Z,15.80
2019-05-21T11:50:15.898Z,15.60
2019-05-21T11:52:44.495Z,15.60
2019-05-21T11:55:11.606Z,15.50
2019-05-21T11:57:39.372Z,15.40
2019-05-21T12:00:07.628Z,15.50
2019-05-21T12:02:34.275Z,15.70
2019-05-21T12:05:04.536Z,15.80
2019-05-21T12:07:31.076Z,15.80
2019-05-21T12:09:57.909Z,16.00
2019-05-21T12:12:24.550Z,15.90
2019-05-21T12:14:51.084Z,16.10
2019-05-21T12:17:17.857Z,16.20
2019-05-21T12:19:44.435Z,16.10
2019-05-21T12:22:19.488Z,16.20
2019-05-21T12:24:48.691Z,16.30
2019-05-21T12:27:15.567Z,16.20
2019-05-21T12:29:42.245Z,16.20
2019-05-21T12:32:09.834Z,16.20
2019-05-21T12:34:38.944Z,16.20
2019-05-21T12:37:05.735Z,16.30
2019-05-21T12:39:32.529Z,16.60
2019-05-21T12:41:59.134Z,16.60
2019-05-21T12:44:26.959Z,16.60
2019-05-21T12:46:53.652Z,16.70
2019-05-21T12:49:20.279Z,16.70
2019-05-21T12:51:46.956Z,16.50
2019-05-21T12:54:14.599Z,16.40
2019-05-21T12:56:41.442Z,16.30
2019-05-21T12:59:08.060Z,16.30
2019-05-21T13:01:34.601Z,16.30
2019-05-21T13:04:01.179Z,16.20
2019-05-21T13:06:27.791Z,16.30
2019-05-21T13:08:54.432Z,16.10
2019-05-21T13:11:21.027Z,16.10
2019-05-21T13:13:47.713Z,16.00
2019-05-21T13:16:14.364Z,16.10
2019-05-21T13:18:41.031Z,16.10
2019-05-21T13:21:08.555Z,16.00
2019-05-21T13:23:35.411Z,16.00
2019-05-21T13:26:02.245Z,16.00
2019-05-21T13:28:28.790Z,16.00
2019-05-21T13:30:55.380Z,16.10
2019-05-21T13:33:22.868Z,16.10
2019-05-21T13:35:49.434Z,16.10
2019-05-21T13:38:15.965Z,16.00
2019-05-21T13:40:42.546Z,15.90
2019-05-21T13:43:09.203Z,15.80
2019-05-21T13:45:35.777Z,15.80
2019-05-21T13:48:02.606Z,15.60
2019-05-21T13:50:29.347Z,15.50
2019-05-21T13:52:55.916Z,15.60
2019-05-21T13:55:22.704Z,15.70
2019-05-21T13:57:49.377Z,15.70
2019-05-21T14:00:18.735Z,15.60
2019-05-21T14:02:45.801Z,15.70
2019-05-21T14:05:13.068Z,15.70
2019-05-21T14:07:39.935Z,15.80
2019-05-21T14:10:19.189Z,15.90
2019-05-21T14:12:36.073Z,15.90
2019-05-21T14:15:04.380Z,16.00
2019-05-21T14:17:31.229Z,16.10
2019-05-21T14:19:57.775Z,16.10
2019-05-21T14:22:24.357Z,16.00
2019-05-21T14:24:50.880Z,16.10
2019-05-21T14:27:17.540Z,16.30
2019-05-21T14:29:44.105Z,16.10
2019-05-21T14:32:11.841Z,16.20
2019-05-21T14:34:39.766Z,15.90
2019-05-21T14:37:06.431Z,15.90
2019-05-21T14:39:32.970Z,15.80
2019-05-21T14:41:59.523Z,15.70
2019-05-21T14:44:26.182Z,15.60
2019-05-21T14:46:52.761Z,15.60
2019-05-21T14:49:19.329Z,15.70
2019-05-21T14:51:45.898Z,15.80
2019-05-21T14:54:25.428Z,15.80
2019-05-21T14:56:40.991Z,15.70
2019-05-21T14:59:07.572Z,15.80
2019-05-21T15:01:34.116Z,15.80
2019-05-21T15:04:00.845Z,15.70
2019-05-21T15:06:27.548Z,15.70
2019-05-21T15:08:55.363Z,15.70
2019-05-21T15:11:21.922Z,15.70
2019-05-21T15:13:48.512Z,15.70
2019-05-21T15:16:15.140Z,15.70
2019-05-21T15:18:41.806Z,15.60
2019-05-21T15:21:13.086Z,15.70
2019-05-21T15:23:39.795Z,15.70
2019-05-21T15:26:07.022Z,15.70
2019-05-21T15:28:33.561Z,15.70
2019-05-21T15:31:00.803Z,15.60
2019-05-21T15:33:27.377Z,15.50
2019-05-21T15:35:57.580Z,15.50
2019-05-21T15:38:24.176Z,15.50
2019-05-21T15:41:08.449Z,15.50
2019-05-21T15:43:19.124Z,15.70
2019-05-21T15:45:45.661Z,15.70
2019-05-21T15:48:12.230Z,15.80
2019-05-21T15:50:38.808Z,15.80
2019-05-21T15:53:05.366Z,15.80
2019-05-21T15:55:32.041Z,15.90
2019-05-21T15:57:58.604Z,15.80
2019-05-21T16:00:27.038Z,15.90
2019-05-21T16:02:53.602Z,15.80
2019-05-21T16:05:21.375Z,15.70
2019-05-21T16:07:47.904Z,15.80
2019-05-21T16:10:14.695Z,15.80
2019-05-21T16:12:41.473Z,15.80
2019-05-21T16:15:08.353Z,15.80
2019-05-21T16:17:35.205Z,15.80
2019-05-21T16:20:08.310Z,16.00
2019-05-21T16:22:34.938Z,15.90
2019-05-21T16:25:02.709Z,15.90
2019-05-21T16:27:29.307Z,16.00
2019-05-21T16:29:55.923Z,15.90
2019-05-21T16:32:22.582Z,16.00
2019-05-21T16:34:49.439Z,15.90
2019-05-21T16:37:16.431Z,16.00
2019-05-21T16:39:42.982Z,15.90
2019-05-21T16:42:09.721Z,16.00
2019-05-21T16:44:36.253Z,15.80
2019-05-21T16:47:03.078Z,15.80
2019-05-21T16:49:29.583Z,15.80
2019-05-21T16:51:56.290Z,15.80
2019-05-21T16:54:23.187Z,15.90
2019-05-21T16:56:49.748Z,15.80
2019-05-21T16:59:16.331Z,15.60
2019-05-21T17:01:42.998Z,15.50
2019-05-21T17:04:09.549Z,15.40
2019-05-21T17:06:36.223Z,15.40
2019-05-21T17:09:04.986Z,15.30
2019-05-21T17:11:31.652Z,15.30
2019-05-21T17:13:58.259Z,15.40
2019-05-21T17:16:25.939Z,15.40
2019-05-21T17:18:52.524Z,15.30
2019-05-21T17:21:20.672Z,15.30
2019-05-21T17:23:47.340Z,15.30
2019-05-21T17:26:13.995Z,15.30
2019-05-21T17:28:41.035Z,15.30
2019-05-21T17:31:07.717Z,15.20
2019-05-21T17:33:34.380Z,15.20
2019-05-21T17:36:00.947Z,15.10
2019-05-21T17:38:27.787Z,15.10
2019-05-21T17:40:54.759Z,15.20
2019-05-21T17:43:22.518Z,15.20
2019-05-21T17:45:49.333Z,15.10
2019-05-21T17:48:16.112Z,15.10
2019-05-21T17:50:42.979Z,15.00
2019-05-21T17:53:09.672Z,15.00
2019-05-21T17:55:36.380Z,15.00
2019-05-21T17:58:03.623Z,15.10
2019-05-21T18:00:47.540Z,15.00
2019-05-21T18:03:14.609Z,15.00
2019-05-21T18:05:43.669Z,15.00
2019-05-21T18:08:10.647Z,15.00
2019-05-21T18:16:22.494Z,14.90
2019-05-21T18:18:52.669Z,14.90
2019-05-21T18:21:25.455Z,14.90
2019-05-21T18:23:56.762Z,14.90
2019-05-21T18:26:25.449Z,14.90
2019-05-21T18:28:53.295Z,14.90
2019-05-21T18:31:24.425Z,14.90
2019-05-21T18:33:51.221Z,14.90
2019-05-21T18:36:19.108Z,14.90
2019-05-21T18:38:58.088Z,14.90
2019-05-21T18:41:38.271Z,14.90
2019-05-21T18:44:10.259Z,14.90
2019-05-21T18:49:40.253Z,14.90
2019-05-21T18:55:12.644Z,14.90
2019-05-21T19:00:45.816Z,15.00
2019-05-21T19:03:12.905Z,14.80
2019-05-21T19:05:40.349Z,14.70
2019-05-21T19:08:11.868Z,14.80
2019-05-21T19:10:48.465Z,14.80
2019-05-21T19:13:18.119Z,14.80
2019-05-21T19:15:50.894Z,14.80
2019-05-21T19:18:17.923Z,14.80
2019-05-21T19:21:02.379Z,14.80
2019-05-21T19:23:41.224Z,14.80
2019-05-21T19:26:11.593Z,14.80
2019-05-21T19:28:59.072Z,14.90
2019-05-21T19:31:32.225Z,14.90
2019-05-21T19:36:59.081Z,14.90
2019-05-21T19:39:33.341Z,14.80
2019-05-21T19:42:12.110Z,14.80
2019-05-21T19:44:40.718Z,14.80
2019-05-21T19:47:08.147Z,14.80
2019-05-21T19:49:45.318Z,14.70
2019-05-21T19:52:13.613Z,14.70
2019-05-21T19:54:53.181Z,14.70
2019-05-21T19:57:24.910Z,14.80
2019-05-21T19:59:55.173Z,14.70
2019-05-21T20:02:23.360Z,14.70
2019-05-21T20:04:52.928Z,14.70
2019-05-21T20:07:21.705Z,14.70
2019-05-21T20:09:50.661Z,14.70
2019-05-21T20:12:18.795Z,14.60
2019-05-21T20:14:51.454Z,14.60
2019-05-21T20:17:24.977Z,14.60
2019-05-21T20:20:15.920Z,14.60
2019-05-21T20:23:10.309Z,14.60
2019-05-21T20:25:55.247Z,14.60
2019-05-21T20:28:11.532Z,14.60
2019-05-21T20:30:38.745Z,14.50
2019-05-21T20:33:07.326Z,14.50
2019-05-21T20:35:36.160Z,14.60
2019-05-21T20:38:03.148Z,14.60
2019-05-21T20:40:30.080Z,14.60
2019-05-21T20:42:57.515Z,14.60
2019-05-21T20:45:26.809Z,14.60
2019-05-21T20:47:55.004Z,14.60
2019-05-21T20:50:22.959Z,14.50
2019-05-21T20:52:50.118Z,14.50
2019-05-21T20:55:17.722Z,14.40
2019-05-21T20:57:46.708Z,14.30
2019-05-21T21:00:23.063Z,14.20
2019-05-21T21:02:49.920Z,14.20
2019-05-21T21:05:16.904Z,14.10
2019-05-21T21:07:43.693Z,14.10
2019-05-21T21:10:11.496Z,14.00
2019-05-21T21:12:40.755Z,14.10
2019-05-21T21:15:09.131Z,14.20
2019-05-21T21:17:37.613Z,14.30
2019-05-21T21:20:06.488Z,14.30
2019-05-21T21:22:33.246Z,14.30
2019-05-21T21:25:00.409Z,14.20
2019-05-21T21:27:27.632Z,14.20
2019-05-21T21:29:54.545Z,14.00
2019-05-21T21:32:21.428Z,14.20
2019-05-21T21:34:48.172Z,14.10
2019-05-21T21:37:15.179Z,14.20
2019-05-21T21:39:42.184Z,14.20
2019-05-21T21:42:09.352Z,14.20
2019-05-21T21:44:37.233Z,14.30
2019-05-21T21:47:04.117Z,14.10
2019-05-21T21:49:32.276Z,14.10
2019-05-21T21:51:59.281Z,14.00
2019-05-21T21:54:26.101Z,14.00
2019-05-21T21:56:52.954Z,14.00
2019-05-21T21:59:19.807Z,14.00
2019-05-21T22:01:50.207Z,14.10
2019-05-21T22:04:20.726Z,14.10
2019-05-21T22:06:48.945Z,14.10
2019-05-21T22:09:17.521Z,14.00
2019-05-21T22:11:44.764Z,13.90
2019-05-21T22:14:11.606Z,13.90
2019-05-21T22:16:38.558Z,13.80
2019-05-21T22:19:06.104Z,13.80
2019-05-21T22:21:33.147Z,13.70
2019-05-21T22:24:00.227Z,13.70
2019-05-21T22:26:27.999Z,13.70
2019-05-21T22:28:56.240Z,13.70
2019-05-21T22:31:27.169Z,13.70
2019-05-21T22:33:56.194Z,13.60
2019-05-21T22:36:23.091Z,13.50
2019-05-21T22:38:49.798Z,13.60
2019-05-21T22:41:16.767Z,13.60
2019-05-21T22:43:44.092Z,13.50
2019-05-21T22:46:10.656Z,13.30
2019-05-21T22:48:37.858Z,13.30
2019-05-21T22:51:04.568Z,13.40
2019-05-21T22:53:31.639Z,13.20
2019-05-21T22:55:58.192Z,13.00
2019-05-21T22:58:24.823Z,13.00
2019-05-21T23:00:52.391Z,12.90
2019-05-21T23:03:20.887Z,12.90
2019-05-21T23:05:47.767Z,13.00
2019-05-21T23:08:16.468Z,13.00
2019-05-21T23:10:43.202Z,12.80
2019-05-21T23:13:09.886Z,12.90
2019-05-21T23:15:37.478Z,12.90
2019-05-21T23:18:22.364Z,12.90
2019-05-21T23:21:08.160Z,12.90
2019-05-21T23:23:37.029Z,12.80
2019-05-21T23:26:05.239Z,12.70
2019-05-21T23:28:32.915Z,12.70
2019-05-21T23:31:01.496Z,12.80
2019-05-21T23:33:28.967Z,12.70
2019-05-21T23:35:56.459Z,12.60
2019-05-21T23:38:24.828Z,12.50
2019-05-21T23:40:51.378Z,12.50
2019-05-21T23:43:18.136Z,12.50
2019-05-21T23:45:44.760Z,12.40
2019-05-21T23:48:11.753Z,12.40
2019-05-21T23:50:38.436Z,12.40
2019-05-21T23:53:06.311Z,12.30
2019-05-21T23:55:33.387Z,12.00
2019-05-21T23:58:00.368Z,12.00
